createdAt,value
2022-10-11T00:01:34.493Z,81.64
2022-10-11T00:04:01.274Z,80.99
2022-10-11T00:06:27.793Z,81.68
2022-10-11T00:08:54.258Z,81.45
2022-10-11T00:11:20.741Z,81.49
2022-10-11T00:13:47.240Z,81.59
2022-10-11T00:16:15.314Z,81.72
2022-10-11T00:18:42.363Z,81.63
2022-10-11T00:21:13.046Z,81.70
2022-10-11T00:23:40.644Z,81.21
2022-10-11T00:26:10.107Z,81.44
2022-10-11T00:28:37.230Z,81.52
2022-10-11T00:31:11.478Z,81.66
2022-10-11T00:33:38.051Z,81.86
2022-10-11T00:36:05.254Z,81.75
2022-10-11T00:38:32.555Z,82.00
2022-10-11T00:40:59.691Z,81.81
2022-10-11T00:43:29.166Z,81.63
2022-10-11T00:45:55.503Z,82.09
2022-10-11T00:48:43.672Z,81.80
2022-10-11T00:51:43.107Z,82.10
2022-10-11T00:54:15.101Z,81.79
2022-10-11T00:56:44.077Z,81.76
2022-10-11T00:59:14.379Z,81.86
2022-10-11T01:01:41.039Z,81.91
2022-10-11T01:04:07.709Z,82.03
2022-10-11T01:06:35.053Z,81.80
2022-10-11T01:09:01.790Z,81.99
2022-10-11T01:11:31.087Z,81.35
2022-10-11T01:14:15.827Z,81.89
2022-10-11T01:16:55.059Z,81.51
2022-10-11T01:19:43.421Z,81.37
2022-10-11T01:22:28.736Z,81.88
2022-10-11T01:25:21.217Z,81.87
2022-10-11T01:28:06.711Z,81.75
2022-10-11T01:30:34.257Z,81.29
2022-10-11T01:33:25.116Z,81.79
2022-10-11T01:36:01.334Z,82.34
2022-10-11T01:38:37.093Z,81.78
2022-10-11T01:41:10.654Z,81.90
2022-10-11T01:43:40.241Z,81.51
2022-10-11T01:46:08.757Z,81.83
2022-10-11T01:48:50.446Z,82.33
2022-10-11T01:51:21.911Z,82.25
2022-10-11T01:54:01.536Z,82.97
2022-10-11T01:56:46.297Z,82.49
2022-10-11T01:59:35.265Z,81.86
2022-10-11T02:02:27.251Z,82.52
2022-10-11T02:05:02.621Z,82.36
2022-10-11T02:07:49.344Z,82.18
2022-10-11T02:10:26.697Z,81.93
2022-10-11T02:13:00.726Z,81.85
2022-10-11T02:15:30.563Z,82.24
2022-10-11T02:18:00.937Z,82.37
2022-10-11T02:20:30.120Z,82.54
2022-10-11T02:23:01.796Z,82.49
2022-10-11T02:25:32.669Z,82.25
2022-10-11T02:28:02.543Z,81.90
2022-10-11T02:30:30.717Z,82.56
2022-10-11T02:32:58.808Z,82.35
2022-10-11T02:35:29.803Z,82.59
2022-10-11T02:38:05.528Z,82.47
2022-10-11T02:40:41.484Z,82.55
2022-10-11T02:43:13.274Z,82.42
2022-10-11T02:45:48.303Z,81.76
2022-10-11T02:48:15.531Z,82.36
2022-10-11T02:50:42.724Z,82.11
2022-10-11T02:53:09.798Z,82.25
2022-10-11T02:55:36.607Z,82.67
2022-10-11T02:58:03.818Z,82.37
2022-10-11T03:00:30.643Z,82.48
2022-10-11T03:02:57.030Z,82.50
2022-10-11T03:05:23.585Z,82.58
2022-10-11T03:07:50.049Z,82.62
2022-10-11T03:10:16.806Z,82.09
2022-10-11T03:12:43.352Z,82.80
2022-10-11T03:15:10.418Z,82.93
2022-10-11T03:17:37.566Z,82.72
2022-10-11T03:20:06.035Z,82.82
2022-10-11T03:22:32.612Z,82.80
2022-10-11T03:25:03.616Z,83.00
2022-10-11T03:27:31.493Z,82.94
2022-10-11T03:29:57.999Z,83.15
2022-10-11T03:32:24.767Z,83.18
2022-10-11T03:34:51.248Z,83.05
2022-10-11T03:37:18.293Z,83.25
2022-10-11T03:39:45.657Z,82.79
2022-10-11T03:42:13.531Z,83.04
2022-10-11T03:44:41.564Z,82.77
2022-10-11T03:47:08.436Z,82.73
2022-10-11T03:49:36.144Z,83.06
2022-10-11T03:52:05.158Z,83.31
2022-10-11T03:54:31.746Z,82.62
2022-10-11T03:56:58.694Z,82.98
2022-10-11T03:59:25.254Z,82.98
2022-10-11T04:01:51.678Z,83.02
2022-10-11T04:04:18.231Z,82.98
2022-10-11T04:06:44.666Z,83.64
2022-10-11T04:09:11.096Z,82.95
2022-10-11T04:11:37.499Z,83.23
2022-10-11T04:14:03.934Z,82.91
2022-10-11T04:16:30.358Z,82.19
2022-10-11T04:18:56.803Z,82.36
2022-10-11T04:21:23.259Z,83.31
2022-10-11T04:23:49.671Z,82.79
2022-10-11T04:26:16.201Z,83.36
2022-10-11T04:28:42.661Z,82.80
2022-10-11T04:31:09.122Z,83.17
2022-10-11T04:33:35.877Z,83.14
2022-10-11T04:36:02.933Z,83.29
2022-10-11T04:38:29.601Z,83.14
2022-10-11T04:40:56.058Z,83.33
2022-10-11T04:43:22.499Z,83.66
2022-10-11T04:45:52.334Z,83.67
2022-10-11T04:48:21.802Z,83.50
2022-10-11T04:50:48.314Z,83.45
2022-10-11T04:53:14.803Z,83.84
2022-10-11T04:55:41.224Z,83.62
2022-10-11T04:58:07.657Z,84.22
2022-10-11T05:00:34.174Z,84.13
2022-10-11T05:03:00.781Z,84.03
2022-10-11T05:05:27.252Z,84.54
2022-10-11T05:07:53.644Z,85.20
2022-10-11T05:10:20.118Z,85.79
2022-10-11T05:12:46.560Z,87.02
2022-10-11T05:15:13.203Z,85.91
2022-10-11T05:17:39.573Z,85.70
2022-10-11T05:20:06.822Z,85.74
2022-10-11T05:22:33.664Z,85.34
2022-10-11T05:25:00.112Z,85.26
2022-10-11T05:27:26.539Z,85.48
2022-10-11T05:29:53.016Z,86.61
2022-10-11T05:32:19.490Z,87.01
2022-10-11T05:34:45.946Z,87.62
2022-10-11T05:37:12.434Z,88.11
2022-10-11T05:39:38.810Z,88.53
2022-10-11T05:42:09.593Z,89.43
2022-10-11T05:44:36.347Z,89.40
2022-10-11T05:47:03.238Z,88.96
2022-10-11T05:49:29.834Z,88.98
2022-10-11T05:51:56.609Z,88.66
2022-10-11T05:54:23.230Z,88.21
2022-10-11T05:56:49.653Z,87.68
2022-10-11T05:59:16.097Z,87.63
2022-10-11T06:01:42.563Z,86.92
2022-10-11T06:04:09.190Z,86.73
2022-10-11T06:06:35.589Z,86.86
2022-10-11T06:09:01.994Z,86.00
2022-10-11T06:11:28.453Z,86.72
2022-10-11T06:13:56.248Z,86.08
2022-10-11T06:16:22.839Z,85.52
2022-10-11T06:18:49.368Z,84.96
2022-10-11T06:21:15.784Z,84.67
2022-10-11T06:23:42.259Z,86.12
2022-10-11T06:26:10.363Z,85.71
2022-10-11T06:28:37.412Z,85.57
2022-10-11T06:31:05.832Z,85.59
2022-10-11T06:33:32.685Z,85.79
2022-10-11T06:36:02.432Z,85.70
2022-10-11T06:38:31.910Z,85.88
2022-10-11T06:40:58.352Z,85.99
2022-10-11T06:43:25.340Z,86.07
2022-10-11T06:45:51.819Z,85.90
2022-10-11T06:48:18.277Z,85.68
2022-10-11T06:50:59.458Z,85.86
2022-10-11T06:53:27.886Z,86.30
2022-10-11T06:55:54.249Z,86.05
2022-10-11T06:58:20.703Z,85.61
2022-10-11T07:00:47.122Z,85.53
2022-10-11T07:03:13.728Z,86.62
2022-10-11T07:05:40.090Z,86.58
2022-10-11T07:08:06.522Z,86.33
2022-10-11T07:10:32.881Z,86.00
2022-10-11T07:12:59.294Z,86.59
2022-10-11T07:15:25.727Z,85.94
2022-10-11T07:17:52.103Z,86.36
2022-10-11T07:20:18.529Z,86.13
2022-10-11T07:22:44.918Z,85.82
2022-10-11T07:25:11.332Z,85.44
2022-10-11T07:27:37.726Z,84.77
2022-10-11T07:30:04.574Z,84.62
2022-10-11T07:32:31.309Z,84.21
2022-10-11T07:34:57.790Z,83.46
2022-10-11T07:37:24.262Z,82.34
2022-10-11T07:39:50.871Z,82.73
2022-10-11T07:42:17.344Z,82.28
2022-10-11T07:44:43.812Z,81.77
2022-10-11T07:47:11.412Z,81.09
2022-10-11T07:49:38.009Z,81.04
2022-10-11T07:52:04.578Z,81.32
2022-10-11T07:54:31.252Z,81.11
2022-10-11T07:56:57.645Z,81.39
2022-10-11T07:59:24.122Z,82.25
2022-10-11T08:01:50.586Z,82.40
2022-10-11T08:04:17.037Z,81.60
2022-10-11T08:06:43.546Z,81.51
2022-10-11T08:09:10.362Z,81.86
2022-10-11T08:11:37.985Z,83.14
2022-10-11T08:14:08.715Z,83.44
2022-10-11T08:16:36.188Z,84.40
2022-10-11T08:19:03.367Z,84.70
2022-10-11T08:21:30.116Z,85.32
2022-10-11T08:23:56.701Z,85.74
2022-10-11T08:26:23.171Z,85.97
2022-10-11T08:28:49.769Z,87.06
2022-10-11T08:31:16.773Z,87.10
2022-10-11T08:33:43.669Z,87.65
2022-10-11T08:36:11.454Z,87.63
2022-10-11T08:38:39.547Z,87.43
2022-10-11T08:41:26.946Z,87.49
2022-10-11T08:44:15.225Z,87.11
2022-10-11T08:46:45.687Z,87.13
2022-10-11T08:49:15.368Z,87.62
2022-10-11T08:51:52.671Z,88.24
2022-10-11T08:54:27.169Z,88.13
2022-10-11T08:56:53.825Z,87.73
2022-10-11T08:59:36.604Z,87.43
2022-10-11T09:02:23.299Z,87.71
2022-10-11T09:04:53.605Z,88.29
2022-10-11T09:07:43.997Z,88.19
2022-10-11T09:10:38.181Z,87.98
2022-10-11T09:13:31.456Z,88.00
2022-10-11T09:16:15.998Z,88.22
2022-10-11T09:18:45.491Z,87.90
2022-10-11T09:21:39.950Z,87.44
2022-10-11T09:24:24.915Z,87.30
2022-10-11T09:26:56.127Z,87.17
2022-10-11T09:29:37.542Z,86.97
2022-10-11T09:32:14.874Z,86.76
2022-10-11T09:34:41.995Z,86.58
2022-10-11T09:37:23.466Z,86.67
2022-10-11T09:40:10.375Z,86.10
2022-10-11T09:42:36.843Z,87.03
2022-10-11T09:45:20.918Z,86.69
2022-10-11T09:47:51.049Z,86.62
2022-10-11T09:50:23.242Z,86.36
2022-10-11T09:52:56.072Z,86.58
2022-10-11T09:55:39.558Z,86.59
2022-10-11T09:58:40.390Z,86.83
2022-10-11T10:01:08.582Z,86.47
2022-10-11T10:03:37.809Z,85.48
2022-10-11T10:06:32.207Z,86.07
2022-10-11T10:09:30.459Z,85.49
2022-10-11T10:11:57.840Z,85.63
2022-10-11T10:14:28.216Z,85.42
2022-10-11T10:17:18.182Z,84.59
2022-10-11T10:19:54.787Z,83.13
2022-10-11T10:22:29.614Z,82.72
2022-10-11T10:24:59.944Z,83.01
2022-10-11T10:27:30.642Z,82.98
2022-10-11T10:30:08.136Z,82.46
2022-10-11T10:32:43.747Z,82.08
2022-10-11T10:35:28.920Z,81.47
2022-10-11T10:38:01.138Z,80.98
2022-10-11T10:40:47.805Z,82.04
2022-10-11T10:43:17.192Z,81.07
2022-10-11T10:46:03.439Z,79.97
2022-10-11T10:49:23.291Z,79.68
2022-10-11T10:51:47.739Z,78.54
2022-10-11T10:54:20.232Z,77.23
2022-10-11T10:56:55.634Z,77.35
2022-10-11T10:59:46.993Z,75.63
2022-10-11T11:02:39.643Z,75.36
2022-10-11T11:05:44.522Z,72.57
2022-10-11T11:08:26.805Z,71.47
2022-10-11T11:11:26.787Z,67.31
2022-10-11T11:14:14.233Z,62.32
2022-10-11T11:16:48.148Z,59.99
2022-10-11T11:19:42.531Z,58.99
2022-10-11T11:22:32.830Z,57.47
2022-10-11T11:25:18.185Z,56.13
2022-10-11T11:27:56.798Z,56.43
2022-10-11T11:30:29.995Z,52.65
2022-10-11T11:33:22.454Z,53.96
2022-10-11T11:35:53.623Z,53.60
2022-10-11T11:38:51.019Z,53.12
2022-10-11T11:41:28.408Z,51.25
2022-10-11T11:44:12.902Z,50.82
2022-10-11T11:46:50.258Z,51.28
2022-10-11T11:49:46.022Z,50.78
2022-10-11T11:52:36.303Z,51.82
2022-10-11T11:55:07.460Z,50.54
2022-10-11T11:57:53.547Z,49.45
2022-10-11T12:00:22.301Z,49.78
2022-10-11T12:03:08.849Z,49.07
2022-10-11T12:05:36.658Z,49.55
2022-10-11T12:08:07.344Z,47.49
2022-10-11T12:10:55.548Z,47.64
2022-10-11T12:13:36.138Z,46.69
2022-10-11T12:16:12.540Z,45.56
2022-10-11T12:18:57.261Z,43.19
2022-10-11T12:21:31.872Z,43.34
2022-10-11T12:23:59.832Z,41.06
2022-10-11T12:26:29.370Z,39.95
2022-10-11T12:29:18.095Z,39.97
2022-10-11T12:31:47.291Z,41.33
2022-10-11T12:34:30.980Z,42.49
2022-10-11T12:36:57.443Z,40.79
2022-10-11T12:39:23.808Z,41.73
2022-10-11T12:41:50.374Z,42.28
2022-10-11T12:44:22.372Z,40.95
2022-10-11T12:46:54.741Z,40.28
2022-10-11T12:49:25.576Z,40.39
2022-10-11T12:52:13.737Z,38.93
2022-10-11T12:54:54.731Z,38.67
2022-10-11T12:57:30.351Z,39.09
2022-10-11T13:00:18.182Z,39.26
2022-10-11T13:02:44.914Z,37.78
2022-10-11T13:05:26.150Z,39.05
2022-10-11T13:07:59.158Z,38.70
2022-10-11T13:10:38.425Z,37.88
2022-10-11T13:13:20.227Z,37.68
2022-10-11T13:15:47.033Z,38.40
2022-10-11T13:18:16.429Z,39.96
2022-10-11T13:20:42.989Z,38.53
2022-10-11T13:23:27.095Z,39.06
2022-10-11T13:25:54.509Z,39.43
2022-10-11T13:28:22.135Z,38.83
2022-10-11T13:30:52.866Z,40.27
2022-10-11T13:33:24.910Z,42.47
2022-10-11T13:35:52.771Z,44.10
2022-10-11T13:38:26.394Z,45.51
2022-10-11T13:40:52.900Z,44.80
2022-10-11T13:43:21.939Z,43.43
2022-10-11T13:45:48.517Z,41.62
2022-10-11T13:48:16.429Z,42.12
2022-10-11T13:50:46.510Z,41.16
2022-10-11T13:53:12.895Z,41.00
2022-10-11T13:55:41.967Z,40.95
2022-10-11T13:58:23.556Z,41.87
2022-10-11T14:00:59.088Z,44.61
2022-10-11T14:03:43.450Z,46.21
2022-10-11T14:06:10.297Z,49.58
2022-10-11T14:08:47.845Z,48.12
2022-10-11T14:11:15.487Z,45.75
2022-10-11T14:13:44.987Z,47.70
2022-10-11T14:16:13.980Z,49.06
2022-10-11T14:18:48.981Z,51.37
2022-10-11T14:21:24.713Z,49.36
2022-10-11T14:23:57.937Z,52.51
2022-10-11T14:26:26.204Z,52.02
2022-10-11T14:29:04.822Z,53.48
2022-10-11T14:31:31.486Z,54.83
2022-10-11T14:33:58.511Z,51.30
2022-10-11T14:36:26.018Z,48.67
2022-10-11T14:38:53.253Z,48.37
2022-10-11T14:41:19.952Z,48.60
2022-10-11T14:43:46.498Z,47.09
2022-10-11T14:46:23.094Z,47.04
2022-10-11T14:48:55.632Z,48.42
2022-10-11T14:51:27.767Z,47.01
2022-10-11T14:53:54.338Z,48.93
2022-10-11T14:56:23.755Z,47.47
2022-10-11T14:58:55.915Z,48.14
2022-10-11T15:01:22.434Z,49.48
2022-10-11T15:03:49.115Z,48.39
2022-10-11T15:06:19.442Z,50.95
2022-10-11T15:08:46.283Z,50.23
2022-10-11T15:11:15.493Z,49.55
2022-10-11T15:13:41.878Z,50.60
2022-10-11T15:16:08.997Z,52.82
2022-10-11T15:18:35.562Z,53.87
2022-10-11T15:21:02.269Z,57.26
2022-10-11T15:23:28.953Z,57.91
2022-10-11T15:25:55.767Z,59.12
2022-10-11T15:28:31.348Z,61.18
2022-10-11T15:30:58.615Z,62.93
2022-10-11T15:33:25.298Z,63.60
2022-10-11T15:35:52.096Z,65.64
2022-10-11T15:38:21.040Z,66.67
2022-10-11T15:40:48.713Z,68.12
2022-10-11T15:43:15.849Z,69.00
2022-10-11T15:45:43.042Z,68.46
2022-10-11T15:48:15.523Z,69.98
2022-10-11T15:50:42.456Z,69.43
2022-10-11T15:53:18.218Z,69.98
2022-10-11T15:55:47.079Z,70.95
2022-10-11T15:58:20.472Z,71.86
2022-10-11T16:00:48.576Z,71.91
2022-10-11T16:03:16.064Z,72.20
2022-10-11T16:05:43.036Z,72.34
2022-10-11T16:08:10.595Z,72.69
2022-10-11T16:10:37.466Z,73.48
2022-10-11T16:13:04.255Z,73.88
2022-10-11T16:15:30.834Z,73.31
2022-10-11T16:17:57.334Z,74.22
2022-10-11T16:20:25.673Z,74.46
2022-10-11T16:22:54.042Z,75.24
2022-10-11T16:25:24.063Z,75.60
2022-10-11T16:27:51.655Z,76.03
2022-10-11T16:30:19.748Z,76.09
2022-10-11T16:32:46.650Z,76.17
2022-10-11T16:35:14.862Z,76.44
2022-10-11T16:37:41.400Z,77.38
2022-10-11T16:40:08.689Z,77.47
2022-10-11T16:42:35.382Z,78.06
2022-10-11T16:45:01.755Z,78.60
2022-10-11T16:47:28.179Z,78.43
2022-10-11T16:49:54.569Z,78.66
2022-10-11T16:52:21.166Z,78.90
2022-10-11T16:54:47.900Z,79.46
2022-10-11T16:57:16.515Z,79.24
2022-10-11T16:59:43.130Z,79.23
2022-10-11T17:02:16.514Z,79.24
2022-10-11T17:04:43.109Z,79.61
2022-10-11T17:07:12.855Z,79.76
2022-10-11T17:09:43.943Z,79.99
2022-10-11T17:12:13.149Z,79.99
2022-10-11T17:14:40.788Z,79.82
2022-10-11T17:17:09.590Z,80.47
2022-10-11T17:19:42.584Z,80.08
2022-10-11T17:22:12.380Z,80.04
2022-10-11T17:24:39.318Z,80.02
2022-10-11T17:27:06.634Z,80.48
2022-10-11T17:29:33.893Z,80.46
2022-10-11T17:32:00.838Z,80.36
2022-10-11T17:34:27.528Z,79.92
2022-10-11T17:36:54.008Z,80.11
2022-10-11T17:39:22.418Z,80.63
2022-10-11T17:41:49.730Z,80.61
2022-10-11T17:44:19.568Z,80.59
2022-10-11T17:46:46.611Z,80.56
2022-10-11T17:49:13.965Z,80.39
2022-10-11T17:51:41.504Z,80.68
2022-10-11T17:54:12.352Z,80.83
2022-10-11T17:56:40.872Z,80.98
2022-10-11T17:59:08.709Z,80.81
2022-10-11T18:01:35.640Z,80.97
2022-10-11T18:04:04.228Z,80.94
2022-10-11T18:06:33.782Z,80.96
2022-10-11T18:09:02.056Z,80.68
2022-10-11T18:11:28.888Z,81.16
2022-10-11T18:13:55.609Z,80.87
2022-10-11T18:16:24.048Z,80.99
2022-10-11T18:18:50.570Z,80.93
2022-10-11T18:21:18.618Z,80.84
2022-10-11T18:23:45.533Z,80.89
2022-10-11T18:26:17.336Z,80.70
2022-10-11T18:28:44.626Z,81.51
2022-10-11T18:31:17.334Z,81.20
2022-10-11T18:33:45.973Z,81.32
2022-10-11T18:36:15.229Z,81.19
2022-10-11T18:38:46.287Z,81.25
2022-10-11T18:41:15.791Z,81.20
2022-10-11T18:43:42.267Z,81.37
2022-10-11T18:46:13.969Z,81.21
2022-10-11T18:48:42.058Z,81.17
2022-10-11T18:51:14.865Z,81.62
2022-10-11T18:53:42.294Z,81.93
2022-10-11T18:56:11.329Z,81.86
2022-10-11T18:58:39.207Z,81.82
2022-10-11T19:01:20.413Z,81.22
2022-10-11T19:03:49.045Z,81.60
2022-10-11T19:06:17.757Z,81.68
2022-10-11T19:08:45.930Z,81.64
2022-10-11T19:11:13.998Z,81.45
2022-10-11T19:13:40.619Z,81.71
2022-10-11T19:16:08.464Z,81.67
2022-10-11T19:18:35.437Z,81.59
2022-10-11T19:21:11.726Z,81.57
2022-10-11T19:23:43.154Z,81.59
2022-10-11T19:26:18.186Z,81.29
2022-10-11T19:28:45.751Z,81.36
2022-10-11T19:31:16.804Z,81.54
2022-10-11T19:33:45.178Z,81.61
2022-10-11T19:36:16.427Z,82.00
2022-10-11T19:38:45.880Z,81.88
2022-10-11T19:41:13.782Z,82.26
2022-10-11T19:43:40.601Z,82.12
2022-10-11T19:46:10.170Z,82.11
2022-10-11T19:48:38.125Z,82.29
2022-10-11T19:51:13.980Z,82.12
2022-10-11T19:53:41.330Z,82.22
2022-10-11T19:56:12.046Z,82.56
2022-10-11T19:58:38.899Z,82.22
2022-10-11T20:01:10.263Z,82.51
2022-10-11T20:03:38.116Z,82.35
2022-10-11T20:06:09.189Z,82.36
2022-10-11T20:08:42.679Z,82.77
2022-10-11T20:11:09.853Z,82.38
2022-10-11T20:13:37.315Z,82.71
2022-10-11T20:16:10.338Z,82.95
2022-10-11T20:18:40.385Z,83.33
2022-10-11T20:21:09.701Z,82.82
2022-10-11T20:23:36.163Z,82.66
2022-10-11T20:26:06.822Z,82.58
2022-10-11T20:28:34.447Z,82.58
2022-10-11T20:31:03.187Z,83.46
2022-10-11T20:33:32.020Z,82.77
2022-10-11T20:36:07.056Z,82.92
2022-10-11T20:38:35.222Z,83.46
2022-10-11T20:41:10.355Z,83.11
2022-10-11T20:43:36.883Z,83.83
2022-10-11T20:46:12.384Z,83.86
2022-10-11T20:48:43.164Z,84.23
2022-10-11T20:51:10.743Z,84.32
2022-10-11T20:53:38.503Z,83.78
2022-10-11T20:56:09.555Z,83.46
2022-10-11T20:58:36.060Z,83.99
2022-10-11T21:01:39.529Z,84.00
2022-10-11T21:04:07.940Z,83.75
2022-10-11T21:06:34.625Z,83.06
2022-10-11T21:09:39.299Z,83.30
2022-10-11T21:12:06.175Z,82.93
2022-10-11T21:14:32.587Z,83.03
2022-10-11T21:16:59.031Z,83.36
2022-10-11T21:19:25.399Z,83.11
2022-10-11T21:21:53.818Z,83.50
2022-10-11T21:24:20.674Z,83.15
2022-10-11T21:26:47.727Z,83.11
2022-10-11T21:29:14.292Z,83.51
2022-10-11T21:31:40.918Z,83.38
2022-10-11T21:34:07.455Z,83.26
2022-10-11T21:36:34.282Z,83.12
2022-10-11T21:39:00.674Z,83.51
2022-10-11T21:41:30.005Z,83.60
2022-10-11T21:43:57.204Z,83.59
2022-10-11T21:46:41.747Z,83.15
2022-10-11T21:49:12.638Z,83.42
2022-10-11T21:51:39.039Z,83.52
2022-10-11T21:54:05.740Z,83.58
2022-10-11T21:56:32.222Z,83.34
2022-10-11T21:58:58.745Z,83.52
2022-10-11T22:01:25.233Z,83.08
2022-10-11T22:03:54.012Z,83.14
2022-10-11T22:06:21.359Z,83.13
2022-10-11T22:08:48.899Z,83.37
2022-10-11T22:11:15.562Z,83.51
2022-10-11T22:13:42.433Z,83.54
2022-10-11T22:16:11.757Z,83.34
2022-10-11T22:18:38.465Z,83.53
2022-10-11T22:21:13.336Z,83.38
2022-10-11T22:23:41.265Z,83.47
2022-10-11T22:26:10.156Z,83.38
2022-10-11T22:28:36.748Z,83.56
2022-10-11T22:31:05.447Z,83.68
2022-10-11T22:33:32.293Z,83.87
2022-10-11T22:36:00.479Z,83.47
2022-10-11T22:38:27.387Z,83.44
2022-10-11T22:40:54.343Z,84.03
2022-10-11T22:43:20.853Z,83.52
2022-10-11T22:45:47.257Z,83.23
2022-10-11T22:48:13.680Z,83.88
2022-10-11T22:50:40.247Z,83.19
2022-10-11T22:53:07.816Z,83.85
2022-10-11T22:55:34.582Z,84.10
2022-10-11T22:58:01.245Z,83.78
2022-10-11T23:00:27.678Z,84.32
2022-10-11T23:02:54.097Z,83.70
2022-10-11T23:05:20.499Z,83.70
2022-10-11T23:07:47.254Z,83.57
2022-10-11T23:10:14.067Z,83.67
2022-10-11T23:12:40.672Z,83.91
2022-10-11T23:15:07.871Z,83.78
2022-10-11T23:17:34.523Z,83.48
2022-10-11T23:20:01.284Z,83.73
2022-10-11T23:22:28.078Z,83.41
2022-10-11T23:24:54.496Z,84.13
2022-10-11T23:27:21.038Z,83.83
2022-10-11T23:29:47.488Z,83.33
2022-10-11T23:32:13.906Z,84.15
2022-10-11T23:34:40.351Z,83.94
2022-10-11T23:37:06.828Z,84.02
2022-10-11T23:39:33.229Z,83.53
2022-10-11T23:41:59.586Z,83.30
2022-10-11T23:44:26.040Z,83.66
2022-10-11T23:46:52.465Z,83.99
2022-10-11T23:49:18.883Z,83.86
2022-10-11T23:51:45.245Z,83.95
2022-10-11T23:54:11.801Z,83.41
2022-10-11T23:56:38.282Z,83.34
2022-10-11T23:59:04.705Z,83.44
